createdAt,value
2022-10-10T00:01:33.311Z,100483.00
2022-10-10T00:04:01.923Z,100478.00
2022-10-10T00:06:33.013Z,100475.00
2022-10-10T00:09:01.943Z,100480.00
2022-10-10T00:11:29.585Z,100461.00
2022-10-10T00:13:57.476Z,100465.00
2022-10-10T00:16:25.336Z,100467.00
2022-10-10T00:18:53.639Z,100468.00
2022-10-10T00:21:21.300Z,100460.00
2022-10-10T00:23:48.748Z,100457.00
2022-10-10T00:26:18.989Z,100452.00
2022-10-10T00:28:47.820Z,100455.00
2022-10-10T00:31:16.121Z,100445.00
2022-10-10T00:33:43.710Z,100446.00
2022-10-10T00:36:11.216Z,100443.00
2022-10-10T00:38:38.551Z,100441.00
2022-10-10T00:41:06.180Z,100435.00
2022-10-10T00:43:34.835Z,100441.00
2022-10-10T00:46:02.355Z,100431.00
2022-10-10T00:48:38.143Z,100431.00
2022-10-10T00:51:15.279Z,100424.00
2022-10-10T00:54:06.540Z,100436.00
2022-10-10T00:57:05.734Z,100433.00
2022-10-10T00:59:35.313Z,100419.00
2022-10-10T01:02:04.874Z,100414.00
2022-10-10T01:04:46.892Z,100418.00
2022-10-10T01:07:26.765Z,100410.00
2022-10-10T01:09:59.230Z,100411.00
2022-10-10T01:12:54.341Z,100412.00
2022-10-10T01:15:57.121Z,100405.00
2022-10-10T01:19:18.699Z,100401.00
2022-10-10T01:22:12.084Z,100395.00
2022-10-10T01:24:56.434Z,100398.00
2022-10-10T01:27:32.898Z,100387.00
2022-10-10T01:30:20.045Z,100381.00
2022-10-10T01:33:20.789Z,100379.00
2022-10-10T01:36:00.993Z,100382.00
2022-10-10T01:38:42.236Z,100380.00
2022-10-10T01:41:20.129Z,100377.00
2022-10-10T01:43:53.555Z,100377.00
2022-10-10T01:46:21.034Z,100377.00
2022-10-10T01:48:55.120Z,100368.00
2022-10-10T01:51:35.951Z,100382.00
2022-10-10T01:54:37.510Z,100364.00
2022-10-10T01:57:20.012Z,100369.00
2022-10-10T02:00:11.672Z,100358.00
2022-10-10T02:03:14.543Z,100352.00
2022-10-10T02:06:04.291Z,100354.00
2022-10-10T02:08:53.727Z,100349.00
2022-10-10T02:11:21.537Z,100342.00
2022-10-10T02:14:01.556Z,100344.00
2022-10-10T02:16:35.441Z,100341.00
2022-10-10T02:19:06.978Z,100333.00
2022-10-10T02:21:34.939Z,100338.00
2022-10-10T02:24:07.474Z,100321.00
2022-10-10T02:26:36.842Z,100319.00
2022-10-10T02:29:12.901Z,100324.00
2022-10-10T02:32:04.160Z,100322.00
2022-10-10T02:34:39.429Z,100313.00
2022-10-10T02:37:13.952Z,100322.00
2022-10-10T02:39:50.737Z,100319.00
2022-10-10T02:42:21.893Z,100319.00
2022-10-10T02:44:49.757Z,100314.00
2022-10-10T02:47:17.662Z,100317.00
2022-10-10T02:49:45.862Z,100311.00
2022-10-10T02:52:16.331Z,100310.00
2022-10-10T02:54:44.179Z,100309.00
2022-10-10T02:57:12.587Z,100311.00
2022-10-10T02:59:40.090Z,100306.00
2022-10-10T03:02:08.316Z,100301.00
2022-10-10T03:04:36.557Z,100299.00
2022-10-10T03:07:04.898Z,100295.00
2022-10-10T03:09:32.506Z,100286.00
2022-10-10T03:12:00.069Z,100290.00
2022-10-10T03:14:27.478Z,100295.00
2022-10-10T03:16:54.738Z,100290.00
2022-10-10T03:19:22.119Z,100297.00
2022-10-10T03:21:49.561Z,100291.00
2022-10-10T03:24:16.933Z,100291.00
2022-10-10T03:26:44.716Z,100288.00
2022-10-10T03:29:12.315Z,100282.00
2022-10-10T03:31:39.789Z,100285.00
2022-10-10T03:34:07.168Z,100285.00
2022-10-10T03:36:35.122Z,100294.00
2022-10-10T03:39:02.750Z,100286.00
2022-10-10T03:41:30.246Z,100283.00
2022-10-10T03:43:58.007Z,100281.00
2022-10-10T03:46:25.804Z,100278.00
2022-10-10T03:48:53.964Z,100275.00
2022-10-10T03:51:21.354Z,100274.00
2022-10-10T03:53:48.620Z,100278.00
2022-10-10T03:56:16.288Z,100272.00
2022-10-10T03:58:43.910Z,100272.00
2022-10-10T04:01:11.474Z,100274.00
2022-10-10T04:03:38.884Z,100271.00
2022-10-10T04:06:06.651Z,100269.00
2022-10-10T04:08:34.073Z,100261.00
2022-10-10T04:11:01.356Z,100254.00
2022-10-10T04:13:31.152Z,100254.00
2022-10-10T04:15:58.541Z,100246.00
2022-10-10T04:18:26.145Z,100242.00
2022-10-10T04:20:53.644Z,100243.00
2022-10-10T04:23:21.283Z,100236.00
2022-10-10T04:25:53.191Z,100231.00
2022-10-10T04:28:20.780Z,100226.00
2022-10-10T04:30:48.387Z,100220.00
2022-10-10T04:33:15.932Z,100218.00
2022-10-10T04:35:43.695Z,100208.00
2022-10-10T04:38:10.885Z,100217.00
2022-10-10T04:40:38.232Z,100217.00
2022-10-10T04:43:05.734Z,100211.00
2022-10-10T04:45:37.426Z,100213.00
2022-10-10T04:48:05.238Z,100215.00
2022-10-10T04:50:33.459Z,100223.00
2022-10-10T04:53:00.699Z,100219.00
2022-10-10T04:55:28.321Z,100230.00
2022-10-10T04:57:55.723Z,100225.00
2022-10-10T05:00:23.380Z,100224.00
2022-10-10T05:02:50.914Z,100231.00
2022-10-10T05:05:18.671Z,100232.00
2022-10-10T05:07:46.131Z,100233.00
2022-10-10T05:10:13.518Z,100231.00
2022-10-10T05:12:40.811Z,100230.00
2022-10-10T05:15:08.898Z,100231.00
2022-10-10T05:17:36.533Z,100224.00
2022-10-10T05:20:04.938Z,100228.00
2022-10-10T05:22:32.465Z,100228.00
2022-10-10T05:25:00.196Z,100228.00
2022-10-10T05:27:28.717Z,100212.00
2022-10-10T05:29:56.337Z,100218.00
2022-10-10T05:32:24.148Z,100214.00
2022-10-10T05:34:51.546Z,100204.00
2022-10-10T05:37:19.074Z,100206.00
2022-10-10T05:39:47.239Z,100208.00
2022-10-10T05:42:16.558Z,100206.00
2022-10-10T05:44:43.996Z,100200.00
2022-10-10T05:47:11.448Z,100210.00
2022-10-10T05:49:38.852Z,100198.00
2022-10-10T05:52:06.601Z,100203.00
2022-10-10T05:54:34.118Z,100200.00
2022-10-10T05:57:01.731Z,100198.00
2022-10-10T05:59:30.103Z,100193.00
2022-10-10T06:01:57.692Z,100191.00
2022-10-10T06:04:25.166Z,100179.00
2022-10-10T06:06:52.628Z,100178.00
2022-10-10T06:09:20.011Z,100192.00
2022-10-10T06:11:47.411Z,100188.00
2022-10-10T06:14:14.956Z,100181.00
2022-10-10T06:16:45.345Z,100182.00
2022-10-10T06:19:15.061Z,100182.00
2022-10-10T06:21:42.820Z,100186.00
2022-10-10T06:24:11.059Z,100195.00
2022-10-10T06:26:38.756Z,100183.00
2022-10-10T06:29:07.579Z,100182.00
2022-10-10T06:31:39.690Z,100180.00
2022-10-10T06:34:07.797Z,100176.00
2022-10-10T06:36:35.525Z,100173.00
2022-10-10T06:39:02.917Z,100171.00
2022-10-10T06:41:30.451Z,100182.00
2022-10-10T06:43:57.889Z,100174.00
2022-10-10T06:46:25.151Z,100190.00
2022-10-10T06:48:52.620Z,100183.00
2022-10-10T06:51:20.220Z,100184.00
2022-10-10T06:53:47.718Z,100185.00
2022-10-10T06:56:24.966Z,100171.00
2022-10-10T06:58:55.602Z,100168.00
2022-10-10T07:01:24.773Z,100171.00
2022-10-10T07:03:52.378Z,100173.00
2022-10-10T07:06:19.777Z,100174.00
2022-10-10T07:08:47.136Z,100161.00
2022-10-10T07:11:14.984Z,100172.00
2022-10-10T07:13:42.380Z,100166.00
2022-10-10T07:16:11.640Z,100170.00
2022-10-10T07:18:39.118Z,100178.00
2022-10-10T07:21:06.783Z,100178.00
2022-10-10T07:23:34.216Z,100192.00
2022-10-10T07:26:07.601Z,100186.00
2022-10-10T07:28:35.305Z,100188.00
2022-10-10T07:31:07.436Z,100192.00
2022-10-10T07:33:38.898Z,100191.00
2022-10-10T07:36:07.332Z,100191.00
2022-10-10T07:38:36.260Z,100191.00
2022-10-10T07:41:13.694Z,100187.00
2022-10-10T07:43:41.751Z,100186.00
2022-10-10T07:46:17.868Z,100197.00
2022-10-10T07:48:46.038Z,100196.00
2022-10-10T07:51:13.733Z,100188.00
2022-10-10T07:53:41.582Z,100187.00
2022-10-10T07:56:10.624Z,100180.00
2022-10-10T07:58:38.610Z,100187.00
2022-10-10T08:01:11.555Z,100187.00
2022-10-10T08:03:40.447Z,100181.00
2022-10-10T08:06:11.681Z,100186.00
2022-10-10T08:08:49.999Z,100181.00
2022-10-10T08:11:19.996Z,100179.00
2022-10-10T08:13:47.725Z,100177.00
2022-10-10T08:16:16.173Z,100180.00
2022-10-10T08:18:43.824Z,100179.00
2022-10-10T08:21:15.473Z,100173.00
2022-10-10T08:23:43.083Z,100176.00
2022-10-10T08:26:13.730Z,100177.00
2022-10-10T08:28:41.867Z,100164.00
2022-10-10T08:31:15.713Z,100178.00
2022-10-10T08:33:46.148Z,100182.00
2022-10-10T08:36:18.032Z,100180.00
2022-10-10T08:38:45.766Z,100175.00
2022-10-10T08:41:53.067Z,100170.00
2022-10-10T08:44:52.486Z,100162.00
2022-10-10T08:47:29.835Z,100164.00
2022-10-10T08:50:10.721Z,100155.00
2022-10-10T08:52:52.038Z,100153.00
2022-10-10T08:55:29.785Z,100152.00
2022-10-10T08:58:24.169Z,100163.00
2022-10-10T09:01:28.738Z,100152.00
2022-10-10T09:04:00.833Z,100144.00
2022-10-10T09:06:55.957Z,100144.00
2022-10-10T09:10:00.490Z,100144.00
2022-10-10T09:12:59.860Z,100139.00
2022-10-10T09:15:36.582Z,100147.00
2022-10-10T09:18:42.425Z,100146.00
2022-10-10T09:21:20.087Z,100147.00
2022-10-10T09:24:20.706Z,100145.00
2022-10-10T09:27:00.839Z,100147.00
2022-10-10T09:30:13.117Z,100137.00
2022-10-10T09:32:59.404Z,100133.00
2022-10-10T09:35:35.992Z,100133.00
2022-10-10T09:38:28.643Z,100127.00
2022-10-10T09:41:21.621Z,100123.00
2022-10-10T09:43:49.253Z,100125.00
2022-10-10T09:46:16.704Z,100120.00
2022-10-10T09:48:45.228Z,100120.00
2022-10-10T09:51:17.909Z,100117.00
2022-10-10T09:53:47.798Z,100104.00
2022-10-10T09:56:20.457Z,100105.00
2022-10-10T09:58:51.010Z,100112.00
2022-10-10T10:01:25.416Z,100102.00
2022-10-10T10:04:34.484Z,100112.00
2022-10-10T10:07:17.477Z,100104.00
2022-10-10T10:09:56.839Z,100113.00
2022-10-10T10:12:43.448Z,100107.00
2022-10-10T10:15:28.816Z,100114.00
2022-10-10T10:18:17.871Z,100107.00
2022-10-10T10:21:06.611Z,100113.00
2022-10-10T10:23:57.319Z,100104.00
2022-10-10T10:26:31.045Z,100108.00
2022-10-10T10:28:59.017Z,100109.00
2022-10-10T10:31:45.286Z,100106.00
2022-10-10T10:34:57.686Z,100098.00
2022-10-10T10:37:57.578Z,100106.00
2022-10-10T10:40:54.862Z,100098.00
2022-10-10T10:44:02.389Z,100096.00
2022-10-10T10:47:03.015Z,100101.00
2022-10-10T10:49:50.666Z,100104.00
2022-10-10T10:52:57.911Z,100089.00
2022-10-10T10:55:50.988Z,100091.00
2022-10-10T11:00:26.353Z,100093.00
2022-10-10T11:01:57.633Z,100093.00
2022-10-10T11:05:20.030Z,100090.00
2022-10-10T11:08:04.965Z,100087.00
2022-10-10T11:10:59.841Z,100095.00
2022-10-10T11:13:58.380Z,100086.00
2022-10-10T11:16:49.180Z,100079.00
2022-10-10T11:19:27.651Z,100080.00
2022-10-10T11:22:13.732Z,100073.00
2022-10-10T11:25:23.566Z,100074.00
2022-10-10T11:28:18.479Z,100059.00
2022-10-10T11:31:03.781Z,100061.00
2022-10-10T11:33:34.585Z,100064.00
2022-10-10T11:36:21.558Z,100061.00
2022-10-10T11:38:57.836Z,100059.00
2022-10-10T11:41:51.164Z,100057.00
2022-10-10T11:44:39.443Z,100061.00
2022-10-10T11:47:33.534Z,100055.00
2022-10-10T11:50:26.895Z,100054.00
2022-10-10T11:53:06.213Z,100058.00
2022-10-10T11:56:10.890Z,100059.00
2022-10-10T11:59:06.555Z,100065.00
2022-10-10T12:01:46.378Z,100063.00
2022-10-10T12:04:14.165Z,100064.00
2022-10-10T12:06:49.000Z,100073.00
2022-10-10T12:10:00.266Z,100055.00
2022-10-10T12:12:45.583Z,100052.00
2022-10-10T12:15:41.153Z,100050.00
2022-10-10T12:18:31.329Z,100050.00
2022-10-10T12:21:11.449Z,100057.00
2022-10-10T12:23:41.275Z,100051.00
2022-10-10T12:26:17.952Z,100048.00
2022-10-10T12:29:09.067Z,100047.00
2022-10-10T12:31:39.607Z,100040.00
2022-10-10T12:34:43.174Z,100045.00
2022-10-10T12:37:34.143Z,100038.00
2022-10-10T12:40:07.524Z,100042.00
2022-10-10T12:42:38.874Z,100037.00
2022-10-10T12:45:30.719Z,100042.00
2022-10-10T12:48:06.762Z,100041.00
2022-10-10T12:50:40.966Z,100042.00
2022-10-10T12:53:14.387Z,100051.00
2022-10-10T12:55:47.263Z,100039.00
2022-10-10T12:58:29.309Z,100045.00
2022-10-10T13:01:05.119Z,100049.00
2022-10-10T13:03:53.873Z,100052.00
2022-10-10T13:06:39.458Z,100052.00
2022-10-10T13:09:35.373Z,100058.00
2022-10-10T13:12:06.893Z,100058.00
2022-10-10T13:14:43.525Z,100052.00
2022-10-10T13:17:38.417Z,100059.00
2022-10-10T13:20:07.568Z,100049.00
2022-10-10T13:22:37.553Z,100050.00
2022-10-10T13:25:11.509Z,100050.00
2022-10-10T13:27:39.013Z,100044.00
2022-10-10T13:30:07.680Z,100057.00
2022-10-10T13:32:36.572Z,100051.00
2022-10-10T13:35:17.614Z,100049.00
2022-10-10T13:37:47.728Z,100046.00
2022-10-10T13:40:17.966Z,100058.00
2022-10-10T13:42:51.386Z,100055.00
2022-10-10T13:45:45.655Z,100059.00
2022-10-10T13:48:33.681Z,100053.00
2022-10-10T13:51:13.268Z,100056.00
2022-10-10T13:53:50.965Z,100052.00
2022-10-10T13:56:21.812Z,100053.00
2022-10-10T13:59:01.207Z,100049.00
2022-10-10T14:01:31.494Z,100054.00
2022-10-10T14:04:17.259Z,100053.00
2022-10-10T14:07:19.781Z,100056.00
2022-10-10T14:10:06.425Z,100053.00
2022-10-10T14:12:50.659Z,100056.00
2022-10-10T14:15:42.551Z,100056.00
2022-10-10T14:18:16.041Z,100049.00
2022-10-10T14:20:44.922Z,100054.00
2022-10-10T14:23:13.439Z,100056.00
2022-10-10T14:25:43.920Z,100059.00
2022-10-10T14:28:25.197Z,100048.00
2022-10-10T14:30:52.736Z,100051.00
2022-10-10T14:33:21.149Z,100062.00
2022-10-10T14:35:51.858Z,100056.00
2022-10-10T14:38:19.331Z,100058.00
2022-10-10T14:40:49.706Z,100056.00
2022-10-10T14:43:18.507Z,100054.00
2022-10-10T14:45:46.065Z,100061.00
2022-10-10T14:48:13.834Z,100065.00
2022-10-10T14:50:46.244Z,100058.00
2022-10-10T14:53:15.241Z,100058.00
2022-10-10T14:55:43.866Z,100064.00
2022-10-10T14:58:21.686Z,100070.00
2022-10-10T15:00:52.031Z,100065.00
2022-10-10T15:03:19.797Z,100074.00
2022-10-10T15:05:48.697Z,100064.00
2022-10-10T15:08:18.921Z,100065.00
2022-10-10T15:10:46.779Z,100070.00
2022-10-10T15:13:15.299Z,100070.00
2022-10-10T15:15:43.000Z,100079.00
2022-10-10T15:18:32.144Z,100073.00
2022-10-10T15:20:58.238Z,100084.00
2022-10-10T15:23:27.243Z,100084.00
2022-10-10T15:25:54.669Z,100094.00
2022-10-10T15:28:22.092Z,100089.00
2022-10-10T15:30:49.874Z,100094.00
2022-10-10T15:33:17.410Z,100103.00
2022-10-10T15:36:08.070Z,100097.00
2022-10-10T15:38:36.134Z,100099.00
2022-10-10T15:41:07.569Z,100105.00
2022-10-10T15:43:55.293Z,100108.00
2022-10-10T15:46:28.107Z,100106.00
2022-10-10T15:49:01.737Z,100111.00
2022-10-10T15:51:29.935Z,100115.00
2022-10-10T15:54:01.346Z,100114.00
2022-10-10T15:56:32.174Z,100114.00
2022-10-10T15:59:01.901Z,100124.00
2022-10-10T16:01:30.848Z,100124.00
2022-10-10T16:03:58.641Z,100126.00
2022-10-10T16:06:26.404Z,100122.00
2022-10-10T16:09:09.957Z,100127.00
2022-10-10T16:11:42.132Z,100132.00
2022-10-10T16:14:10.557Z,100122.00
2022-10-10T16:16:38.714Z,100130.00
2022-10-10T16:19:06.676Z,100135.00
2022-10-10T16:21:34.659Z,100131.00
2022-10-10T16:24:02.036Z,100137.00
2022-10-10T16:26:33.236Z,100140.00
2022-10-10T16:29:01.896Z,100142.00
2022-10-10T16:31:30.336Z,100147.00
2022-10-10T16:33:59.560Z,100150.00
2022-10-10T16:36:31.214Z,100143.00
2022-10-10T16:38:59.731Z,100143.00
2022-10-10T16:41:48.793Z,100142.00
2022-10-10T16:44:17.688Z,100153.00
2022-10-10T16:46:45.176Z,100159.00
2022-10-10T16:49:14.366Z,100159.00
2022-10-10T16:51:41.736Z,100166.00
2022-10-10T16:54:09.215Z,100173.00
2022-10-10T16:56:36.671Z,100176.00
2022-10-10T16:59:05.031Z,100178.00
2022-10-10T17:01:32.831Z,100188.00
2022-10-10T17:04:02.117Z,100179.00
2022-10-10T17:06:35.376Z,100188.00
2022-10-10T17:09:05.917Z,100189.00
2022-10-10T17:11:34.426Z,100190.00
2022-10-10T17:14:01.957Z,100183.00
2022-10-10T17:19:18.510Z,100201.00
2022-10-10T17:21:45.996Z,100195.00
2022-10-10T17:24:13.656Z,100203.00
2022-10-10T17:26:41.639Z,100207.00
2022-10-10T17:29:08.864Z,100219.00
2022-10-10T17:31:36.395Z,100221.00
2022-10-10T17:34:03.726Z,100224.00
2022-10-10T17:36:31.053Z,100228.00
2022-10-10T17:39:01.568Z,100231.00
2022-10-10T17:41:30.019Z,100241.00
2022-10-10T17:43:57.632Z,100242.00
2022-10-10T17:46:34.875Z,100248.00
2022-10-10T17:49:10.939Z,100264.00
2022-10-10T17:51:41.388Z,100257.00
2022-10-10T17:54:10.252Z,100263.00
2022-10-10T17:56:37.823Z,100257.00
2022-10-10T17:59:09.678Z,100267.00
2022-10-10T18:01:38.272Z,100268.00
2022-10-10T18:04:06.899Z,100278.00
2022-10-10T18:06:38.028Z,100282.00
2022-10-10T18:09:06.126Z,100281.00
2022-10-10T18:11:33.767Z,100284.00
2022-10-10T18:14:01.343Z,100286.00
2022-10-10T18:16:34.111Z,100288.00
2022-10-10T18:19:04.663Z,100295.00
2022-10-10T18:21:32.350Z,100293.00
2022-10-10T18:24:00.889Z,100305.00
2022-10-10T18:26:30.724Z,100310.00
2022-10-10T18:29:00.226Z,100321.00
2022-10-10T18:31:33.427Z,100335.00
2022-10-10T18:34:03.946Z,100340.00
2022-10-10T18:36:35.560Z,100337.00
2022-10-10T18:39:14.035Z,100354.00
2022-10-10T18:41:41.397Z,100355.00
2022-10-10T18:44:12.844Z,100361.00
2022-10-10T18:46:40.863Z,100372.00
2022-10-10T18:49:11.773Z,100367.00
2022-10-10T18:51:41.633Z,100372.00
2022-10-10T18:54:13.569Z,100375.00
2022-10-10T18:56:42.778Z,100380.00
2022-10-10T18:59:17.552Z,100376.00
2022-10-10T19:01:46.751Z,100392.00
2022-10-10T19:04:16.541Z,100399.00
2022-10-10T19:06:44.627Z,100402.00
2022-10-10T19:09:15.503Z,100406.00
2022-10-10T19:11:47.403Z,100399.00
2022-10-10T19:14:18.449Z,100404.00
2022-10-10T19:16:48.321Z,100396.00
2022-10-10T19:19:19.057Z,100405.00
2022-10-10T19:21:48.974Z,100406.00
2022-10-10T19:24:21.402Z,100417.00
2022-10-10T19:26:58.266Z,100422.00
2022-10-10T19:29:27.338Z,100421.00
2022-10-10T19:31:55.151Z,100417.00
2022-10-10T19:34:24.020Z,100421.00
2022-10-10T19:36:51.535Z,100431.00
2022-10-10T19:39:19.149Z,100438.00
2022-10-10T19:41:46.662Z,100444.00
2022-10-10T19:44:14.043Z,100446.00
2022-10-10T19:46:41.390Z,100443.00
2022-10-10T19:49:10.299Z,100452.00
2022-10-10T19:51:37.590Z,100455.00
2022-10-10T19:54:05.098Z,100458.00
2022-10-10T19:56:32.606Z,100462.00
2022-10-10T19:59:01.319Z,100463.00
2022-10-10T20:01:30.430Z,100464.00
2022-10-10T20:03:59.232Z,100469.00
2022-10-10T20:06:27.856Z,100472.00
2022-10-10T20:08:56.044Z,100470.00
2022-10-10T20:11:26.572Z,100477.00
2022-10-10T20:13:55.648Z,100478.00
2022-10-10T20:16:26.271Z,100473.00
2022-10-10T20:18:55.027Z,100477.00
2022-10-10T20:21:34.250Z,100491.00
2022-10-10T20:24:07.822Z,100500.00
2022-10-10T20:26:36.721Z,100507.00
2022-10-10T20:29:05.998Z,100513.00
2022-10-10T20:31:36.339Z,100525.00
2022-10-10T20:34:06.335Z,100539.00
2022-10-10T20:36:34.846Z,100531.00
2022-10-10T20:39:08.037Z,100532.00
2022-10-10T20:41:37.833Z,100537.00
2022-10-10T20:44:07.500Z,100550.00
2022-10-10T20:46:39.946Z,100553.00
2022-10-10T20:49:13.891Z,100561.00
2022-10-10T20:51:41.508Z,100569.00
2022-10-10T20:54:11.492Z,100572.00
2022-10-10T20:56:38.732Z,100576.00
2022-10-10T20:59:07.444Z,100568.00
2022-10-10T21:01:37.243Z,100573.00
2022-10-10T21:04:09.328Z,100579.00
2022-10-10T21:06:38.492Z,100588.00
2022-10-10T21:09:09.304Z,100586.00
2022-10-10T21:11:37.864Z,100590.00
2022-10-10T21:14:06.018Z,100597.00
2022-10-10T21:16:39.699Z,100597.00
2022-10-10T21:19:10.413Z,100612.00
2022-10-10T21:21:38.010Z,100619.00
2022-10-10T21:24:08.730Z,100611.00
2022-10-10T21:26:36.160Z,100616.00
2022-10-10T21:29:04.137Z,100622.00
2022-10-10T21:31:38.369Z,100625.00
2022-10-10T21:34:11.247Z,100636.00
2022-10-10T21:36:38.824Z,100632.00
2022-10-10T21:39:07.360Z,100635.00
2022-10-10T21:41:35.713Z,100643.00
2022-10-10T21:44:03.088Z,100644.00
2022-10-10T21:46:36.589Z,100643.00
2022-10-10T21:49:10.266Z,100649.00
2022-10-10T21:51:40.633Z,100650.00
2022-10-10T21:54:09.541Z,100657.00
2022-10-10T21:56:38.466Z,100653.00
2022-10-10T21:59:06.542Z,100653.00
2022-10-10T22:01:34.635Z,100659.00
2022-10-10T22:04:03.065Z,100655.00
2022-10-10T22:06:31.633Z,100663.00
2022-10-10T22:09:01.334Z,100674.00
2022-10-10T22:11:31.338Z,100684.00
2022-10-10T22:13:59.181Z,100684.00
2022-10-10T22:16:26.571Z,100690.00
2022-10-10T22:18:58.327Z,100688.00
2022-10-10T22:21:30.687Z,100695.00
2022-10-10T22:24:02.076Z,100694.00
2022-10-10T22:26:30.011Z,100701.00
2022-10-10T22:28:57.891Z,100710.00
2022-10-10T22:31:25.909Z,100710.00
2022-10-10T22:33:53.381Z,100721.00
2022-10-10T22:36:21.122Z,100722.00
2022-10-10T22:38:48.500Z,100722.00
2022-10-10T22:41:16.065Z,100725.00
2022-10-10T22:43:43.477Z,100733.00
2022-10-10T22:46:10.916Z,100733.00
2022-10-10T22:48:38.486Z,100733.00
2022-10-10T22:51:11.527Z,100733.00
2022-10-10T22:53:43.689Z,100741.00
2022-10-10T22:56:15.525Z,100746.00
2022-10-10T22:58:43.736Z,100744.00
2022-10-10T23:01:16.972Z,100736.00
2022-10-10T23:03:44.881Z,100742.00
2022-10-10T23:06:13.013Z,100750.00
2022-10-10T23:08:40.661Z,100749.00
2022-10-10T23:11:08.415Z,100753.00
2022-10-10T23:13:36.059Z,100766.00
2022-10-10T23:16:04.531Z,100764.00
2022-10-10T23:18:32.682Z,100758.00
2022-10-10T23:21:00.689Z,100762.00
2022-10-10T23:23:27.966Z,100769.00
2022-10-10T23:25:55.442Z,100773.00
2022-10-10T23:28:24.186Z,100779.00
2022-10-10T23:30:51.653Z,100777.00
2022-10-10T23:33:19.013Z,100780.00
2022-10-10T23:36:01.055Z,100784.00
2022-10-10T23:38:29.592Z,100784.00
2022-10-10T23:40:57.667Z,100791.00
2022-10-10T23:43:25.601Z,100792.00
2022-10-10T23:45:53.363Z,100791.00
2022-10-10T23:48:21.231Z,100798.00
2022-10-10T23:50:48.811Z,100798.00
2022-10-10T23:53:16.259Z,100806.00
2022-10-10T23:55:43.947Z,100798.00
2022-10-10T23:58:11.501Z,100805.00
